Aviation Digital Data Service (ADDS)

Output produced by TAFs form (2146 UTC 16 October 2017)
found at http://www.aviationweather.gov/adds/tafs/
 
KBJC 162145Z 22007KT 50SM BKN150 21/M08 A3024
KBJC 161909Z 1619/1718 22010KT P6SM SCT140 BKN200 
     TEMPO 1619/1621 23011G22KT 
     FM162100 31011KT P6SM SCT140 SCT220 
     FM170300 26010KT P6SM FEW140 SCT220